Time;durP1;ratioP1;P1;durP2;ratioP2;P2;SDS_P1;SDS_P2;PMS_P1;PMS_P2;Temp;Humidity;BMP_temperature;BMP_pressure;BME280_temperature;BME280_humidity;BME280_pressure;Samples;Min_cycle;Max_cycle;Signal;HPM_P1;HPM_P2
2023/02/28 00:00:32;;;;;;;3.88;2.00;;;;;;;-2.95;76.80;96378.28;4993304;28;24428;-76
2023/02/28 00:02:58;;;;;;;3.00;1.85;;;;;;;-2.94;77.30;96370.69;4992519;28;24424;-75
2023/02/28 00:05:28;;;;;;;3.17;1.90;;;;;;;-2.85;76.58;96366.47;4992413;28;24432;-75
2023/02/28 00:07:55;;;;;;;3.77;2.23;;;;;;;-3.04;77.93;96380.81;4992358;28;24450;-76
2023/02/28 00:10:23;;;;;;;2.67;2.05;;;;;;;-2.81;77.79;96379.13;4992021;28;25019;-76
2023/02/28 00:12:50;;;;;;;3.08;1.95;;;;;;;-3.04;78.50;96373.22;4992324;28;24432;-75
2023/02/28 00:15:18;;;;;;;3.07;2.07;;;;;;;-2.81;78.16;96379.13;4992334;28;24417;-76
2023/02/28 00:17:45;;;;;;;6.70;2.42;;;;;;;-3.15;78.84;96373.25;4992198;28;24460;-76
2023/02/28 00:20:13;;;;;;;4.77;2.20;;;;;;;-3.16;79.08;96381.66;4992251;28;24472;-76
2023/02/28 00:22:43;;;;;;;2.80;1.98;;;;;;;-2.95;78.21;96371.53;4992306;28;24999;-76
2023/02/28 00:25:11;;;;;;;5.78;2.45;;;;;;;-2.93;78.84;96368.97;4992294;28;24424;-76
2023/02/28 00:27:40;;;;;;;4.30;2.25;;;;;;;-3.12;80.17;96367.31;4992297;28;24421;-76
2023/02/28 00:30:09;;;;;;;3.78;2.20;;;;;;;-3.08;79.88;96366.47;4992138;28;24452;-76
2023/02/28 00:32:36;;;;;;;4.10;2.13;;;;;;;-3.01;79.56;96366.44;4992231;28;24429;-76
2023/02/28 00:35:03;;;;;;;2.28;1.77;;;;;;;-3.05;79.94;96369.84;4992136;28;24432;-75
2023/02/28 00:37:29;;;;;;;3.13;1.77;;;;;;;-3.14;79.73;96372.38;4992009;28;24429;-75
2023/02/28 00:39:57;;;;;;;4.28;2.45;;;;;;;-3.35;82.05;96369.84;4994221;28;24417;-76
2023/02/28 00:42:24;;;;;;;2.92;1.92;;;;;;;-3.31;81.73;96377.44;4996092;28;24432;-76
2023/02/28 00:44:51;;;;;;;4.93;2.10;;;;;;;-3.47;82.56;96374.03;4996036;28;24454;-76
2023/02/28 00:47:17;;;;;;;2.40;1.95;;;;;;;-3.11;81.83;96374.94;4995636;28;24413;-76
2023/02/28 00:49:44;;;;;;;3.03;2.08;;;;;;;-3.01;80.86;96370.69;4995834;28;24808;-75
2023/02/28 00:52:11;;;;;;;6.93;2.63;;;;;;;-3.03;81.37;96373.22;4995597;28;24997;-76
2023/02/28 00:54:37;;;;;;;4.75;2.28;;;;;;;-3.19;81.45;96357.19;4995782;28;24429;-75
2023/02/28 00:57:05;;;;;;;3.58;1.95;;;;;;;-3.23;82.76;96373.22;4995836;28;24432;-75
2023/02/28 00:59:31;;;;;;;3.37;1.90;;;;;;;-3.23;82.62;96362.22;4995321;28;24995;-76
2023/02/28 01:01:58;;;;;;;3.13;2.13;;;;;;;-3.30;83.41;96371.53;4995724;28;24425;-75
2023/02/28 01:04:25;;;;;;;2.90;2.08;;;;;;;-3.11;82.50;96367.31;4995687;28;24428;-76
2023/02/28 01:06:51;;;;;;;5.18;2.65;;;;;;;-3.16;83.66;96359.69;4995674;28;24417;-75
2023/02/28 01:09:17;;;;;;;4.13;2.50;;;;;;;-3.12;83.49;96364.78;4995156;28;24807;-75
2023/02/28 01:11:44;;;;;;;3.30;2.20;;;;;;;-3.26;85.26;96363.09;4995318;28;24950;-75
2023/02/28 01:14:14;;;;;;;2.75;2.05;;;;;;;-3.22;84.52;96358.88;4995456;28;24479;-76
2023/02/28 01:16:41;;;;;;;2.90;1.77;;;;;;;-3.37;85.79;96358.84;4995667;28;24409;-76
2023/02/28 01:19:08;;;;;;;3.35;2.45;;;;;;;-3.41;86.07;96351.25;4995125;28;24990;-76
2023/02/28 01:21:35;;;;;;;4.40;2.17;;;;;;;-3.42;86.95;96358.84;4995347;28;24748;-76
2023/02/28 01:24:02;;;;;;;3.58;2.22;;;;;;;-3.49;87.60;96358.00;4995320;28;24430;-76
2023/02/28 01:26:28;;;;;;;6.00;2.20;;;;;;;-3.45;88.36;96357.19;4995271;28;24417;-75
2023/02/28 01:28:55;;;;;;;3.08;2.08;;;;;;;-3.44;88.92;96356.31;4995147;28;24425;-75
2023/02/28 01:31:24;;;;;;;3.10;2.50;;;;;;;-3.32;88.86;96349.56;4995179;28;24452;-75
2023/02/28 01:33:51;;;;;;;3.15;2.33;;;;;;;-3.52;90.11;96350.41;4994982;28;24413;-75
2023/02/28 01:36:19;;;;;;;4.47;2.28;;;;;;;-3.44;90.31;96352.94;4994996;28;24421;-75
2023/02/28 01:38:46;;;;;;;3.70;2.30;;;;;;;-3.36;90.64;96358.88;4995041;28;24428;-75
2023/02/28 01:41:17;;;;;;;4.15;2.50;;;;;;;-3.43;91.39;96357.16;4995031;28;24432;-75
2023/02/28 01:44:03;;;;;;;4.30;2.97;;;;;;;-3.22;90.98;96357.19;4995721;28;24943;-75
2023/02/28 01:46:33;;;;;;;3.70;2.20;;;;;;;-3.37;91.92;96356.31;4994566;28;25040;-75
2023/02/28 01:49:06;;;;;;;3.60;2.38;;;;;;;-3.56;93.33;96345.31;4994779;28;24436;-74
2023/02/28 01:51:38;;;;;;;3.70;2.60;;;;;;;-3.48;93.39;96353.78;4994356;28;24432;-75
2023/02/28 01:54:13;;;;;;;4.00;2.50;;;;;;;-3.56;94.10;96343.66;4994805;28;24420;-75
2023/02/28 01:56:44;;;;;;;3.65;2.55;;;;;;;-3.59;94.49;96345.34;4994804;28;24424;-75
2023/02/28 01:59:15;;;;;;;5.15;3.22;;;;;;;-3.55;96.16;96347.03;4994348;28;24429;-74
2023/02/28 02:01:43;;;;;;;3.97;2.63;;;;;;;-3.53;95.83;96342.78;4994537;28;24457;-74
2023/02/28 02:04:10;;;;;;;4.30;3.13;;;;;;;-3.41;95.46;96332.69;4994245;28;24966;-74
2023/02/28 02:06:40;;;;;;;3.67;2.53;;;;;;;-3.41;95.53;96341.13;4994524;28;24424;-74
2023/02/28 02:09:06;;;;;;;3.88;2.70;;;;;;;-3.42;96.77;96333.53;4994508;28;24421;-74
2023/02/28 02:11:34;;;;;;;2.90;2.50;;;;;;;-3.52;97.27;96329.28;4994442;28;24507;-75
2023/02/28 02:14:24;;;;;;;4.95;3.00;;;;;;;-3.58;97.50;96335.19;4994433;28;24417;-74
2023/02/28 02:17:06;;;;;;;3.75;2.65;;;;;;;-3.50;98.08;96335.22;4994012;28;24459;-74
2023/02/28 02:20:09;;;;;;;5.70;2.80;;;;;;;-3.66;99.23;96324.22;4994218;28;24443;-75
2023/02/28 02:23:05;;;;;;;5.78;2.92;;;;;;;-3.51;98.44;96319.19;4990732;28;24445;-74
2023/02/28 02:25:40;;;;;;;6.80;3.40;;;;;;;-3.44;98.93;96320.03;4994223;28;24444;-74
2023/02/28 02:28:36;;;;;;;5.40;3.20;;;;;;;-3.42;97.97;96324.22;4994093;28;24428;-75
2023/02/28 02:31:49;;;;;;;4.80;2.90;;;;;;;-3.44;99.15;96315.81;4951508;28;24464;-75
2023/02/28 02:34:38;;;;;;;5.13;3.03;;;;;;;-3.45;100.00;96326.78;4967101;28;24451;-75
2023/02/28 02:37:16;;;;;;;5.32;3.20;;;;;;;-3.47;100.00;96318.34;4993734;28;24417;-75
2023/02/28 02:39:49;;;;;;;4.18;3.08;;;;;;;-3.58;100.00;96320.00;4993653;28;24471;-74
2023/02/28 02:42:20;;;;;;;6.10;3.05;;;;;;;-3.45;100.00;96319.19;4993899;28;24417;-75
2023/02/28 02:44:53;;;;;;;6.95;3.20;;;;;;;-3.51;100.00;96315.81;4993518;28;24432;-74
2023/02/28 02:47:24;;;;;;;4.00;2.93;;;;;;;-3.60;100.00;96323.38;4993806;28;24479;-75
2023/02/28 02:49:54;;;;;;;4.00;2.90;;;;;;;-3.61;100.00;96327.59;4993708;28;24500;-74
2023/02/28 02:52:25;;;;;;;5.07;2.97;;;;;;;-3.42;100.00;96328.47;4994490;28;24413;-74
2023/02/28 02:54:55;;;;;;;4.65;3.05;;;;;;;-3.56;100.00;96327.59;4993292;28;24428;-74
2023/02/28 02:57:27;;;;;;;7.97;3.28;;;;;;;-3.46;100.00;96320.00;4993257;28;24761;-73
2023/02/28 02:59:56;;;;;;;5.35;3.25;;;;;;;-3.72;100.00;96321.69;4993198;28;24432;-74
2023/02/28 03:02:25;;;;;;;4.93;3.50;;;;;;;-3.85;100.00;96322.50;4992383;28;24973;-74
2023/02/28 03:05:00;;;;;;;4.40;3.20;;;;;;;-3.45;100.00;96329.31;4993117;28;24989;-74
2023/02/28 03:07:26;;;;;;;3.50;3.10;;;;;;;-3.65;100.00;96326.75;4993405;28;24432;-74
2023/02/28 03:09:54;;;;;;;3.90;2.80;;;;;;;-3.68;100.00;96325.91;4993218;28;24424;-75
2023/02/28 03:12:23;;;;;;;5.03;3.47;;;;;;;-3.69;100.00;96332.66;4993328;28;24417;-75
2023/02/28 03:15:01;;;;;;;3.95;2.92;;;;;;;-3.95;100.00;96335.13;4992943;28;24981;-75
2023/02/28 03:17:50;;;;;;;4.07;3.13;;;;;;;-3.79;100.00;96327.56;4993158;28;24775;-74
2023/02/28 03:20:28;;;;;;;3.83;3.00;;;;;;;-3.76;100.00;96327.56;4992894;28;24499;-74
2023/02/28 03:23:08;;;;;;;5.32;3.20;;;;;;;-3.75;100.00;96319.97;4993194;28;24425;-75
2023/02/28 03:25:42;;;;;;;6.15;3.08;;;;;;;-3.76;100.00;96322.50;4993093;28;24420;-75
2023/02/28 03:28:17;;;;;;;11.77;3.20;;;;;;;-3.72;100.00;96319.97;4993008;28;24440;-75
2023/02/28 03:30:51;;;;;;;5.45;3.38;;;;;;;-3.63;100.00;96323.38;4992980;28;24429;-74
2023/02/28 03:33:23;;;;;;;5.78;3.35;;;;;;;-3.57;100.00;96319.16;4992694;28;24942;-74
2023/02/28 03:35:54;;;;;;;4.40;3.03;;;;;;;-3.74;100.00;96314.09;4992906;28;24809;-75
2023/02/28 03:38:25;;;;;;;5.28;3.42;;;;;;;-3.88;100.00;96315.75;4992541;28;24957;-74
2023/02/28 03:40:58;;;;;;;5.32;3.40;;;;;;;-3.76;100.00;96317.44;4992765;28;24416;-74
2023/02/28 03:43:31;;;;;;;5.45;3.67;;;;;;;-3.70;100.00;96308.19;4992492;28;24497;-74
2023/02/28 03:46:01;;;;;;;4.90;3.45;;;;;;;-3.68;100.00;96306.50;4992683;28;24413;-74
2023/02/28 03:48:36;;;;;;;5.82;3.45;;;;;;;-3.66;100.00;96319.16;4992634;28;24429;-74
2023/02/28 03:51:09;;;;;;;4.47;3.40;;;;;;;-3.49;100.00;96309.03;4992183;28;24439;-74
2023/02/28 03:53:38;;;;;;;4.22;3.83;;;;;;;-3.70;100.00;96309.88;4992703;28;24416;-75
2023/02/28 03:56:12;;;;;;;7.78;3.83;;;;;;;-3.61;100.00;96314.94;4992521;28;24421;-74
2023/02/28 03:58:44;;;;;;;6.13;3.70;;;;;;;-3.50;100.00;96312.41;4992119;28;24425;-74
2023/02/28 04:01:17;;;;;;;6.90;3.92;;;;;;;-3.63;100.00;96324.25;4991835;28;24856;-74
2023/02/28 04:03:43;;;;;;;4.57;3.83;;;;;;;-3.73;100.00;96322.53;4992114;28;24417;-74
2023/02/28 04:06:17;;;;;;;4.90;3.50;;;;;;;-3.72;100.00;96324.22;4992372;28;24436;-74
2023/02/28 04:08:44;;;;;;;4.80;3.88;;;;;;;-3.51;100.00;96319.19;4992384;28;24436;-74
2023/02/28 04:11:19;;;;;;;6.57;3.90;;;;;;;-3.61;100.00;96316.63;4992271;28;24472;-74
2023/02/28 04:13:46;;;;;;;7.15;3.65;;;;;;;-3.57;100.00;96323.38;4991938;28;24950;-74
2023/02/28 04:16:12;;;;;;;5.23;3.70;;;;;;;-3.32;100.00;96317.50;4992239;28;24428;-75
2023/02/28 04:18:39;;;;;;;6.80;4.07;;;;;;;-3.40;100.00;96321.72;4992221;28;24421;-74
2023/02/28 04:21:06;;;;;;;4.72;3.80;;;;;;;-3.51;100.00;96319.19;4992102;28;24425;-74
2023/02/28 04:23:34;;;;;;;5.47;3.83;;;;;;;-3.53;100.00;96325.06;4991770;28;24948;-74
2023/02/28 04:26:01;;;;;;;4.75;4.05;;;;;;;-3.53;100.00;96317.47;4992104;28;24448;-74
2023/02/28 04:28:27;;;;;;;6.97;3.83;;;;;;;-3.60;100.00;96320.84;4992172;28;24436;-74
2023/02/28 04:30:57;;;;;;;5.63;3.80;;;;;;;-3.78;100.00;96314.94;4992119;28;24452;-74
2023/02/28 04:33:23;;;;;;;4.68;4.10;;;;;;;-3.83;100.00;96319.13;4992199;28;24428;-74
2023/02/28 04:35:59;;;;;;;6.03;4.35;;;;;;;-3.87;100.00;96321.66;4992103;28;24469;-74
2023/02/28 04:38:25;;;;;;;6.22;3.80;;;;;;;-3.88;100.00;96315.75;4992475;28;24452;-74
2023/02/28 04:40:53;;;;;;;6.17;4.17;;;;;;;-3.47;100.00;96317.50;4992100;28;24420;-74
2023/02/28 04:43:20;;;;;;;5.68;4.18;;;;;;;-3.65;100.00;96315.78;4992091;28;24417;-74
2023/02/28 04:45:46;;;;;;;6.60;4.00;;;;;;;-3.68;100.00;96316.59;4992047;28;24432;-75
2023/02/28 04:48:12;;;;;;;5.77;4.50;;;;;;;-3.49;100.00;96309.03;4991986;28;24437;-74
2023/02/28 04:50:39;;;;;;;6.13;4.15;;;;;;;-3.36;100.00;96308.22;4991928;28;24445;-74
2023/02/28 04:53:05;;;;;;;9.05;4.55;;;;;;;-3.47;100.00;96305.66;4992014;28;24424;-74
2023/02/28 04:55:32;;;;;;;7.68;4.30;;;;;;;-3.65;100.00;96314.09;4991985;28;24424;-74
2023/02/28 04:58:00;;;;;;;5.53;4.35;;;;;;;-3.51;100.00;96313.28;4992244;28;24433;-75
2023/02/28 05:00:26;;;;;;;7.13;4.85;;;;;;;-3.34;100.00;96314.09;4992194;28;24417;-74
2023/02/28 05:02:52;;;;;;;6.53;4.47;;;;;;;-3.82;100.00;96318.31;4992085;28;24424;-74
2023/02/28 05:05:19;;;;;;;6.93;4.22;;;;;;;-3.53;100.00;96310.72;4991978;28;24417;-74
2023/02/28 05:07:45;;;;;;;7.83;4.60;;;;;;;-3.41;100.00;96320.88;4991879;28;24508;-74
2023/02/28 05:10:12;;;;;;;9.95;3.97;;;;;;;-3.68;100.00;96320.84;4991844;28;24421;-73
2023/02/28 05:12:39;;;;;;;6.82;4.38;;;;;;;-3.59;100.00;96318.34;4991801;28;24456;-74
2023/02/28 05:15:13;;;;;;;6.05;4.50;;;;;;;-3.61;100.00;96320.00;4991419;28;25005;-74
2023/02/28 05:17:39;;;;;;;4.80;4.40;;;;;;;-3.59;100.00;96323.41;4991090;28;24448;-74
2023/02/28 05:20:08;;;;;;;5.13;4.00;;;;;;;-3.66;100.00;96322.53;4989331;28;24437;-74
2023/02/28 05:22:35;;;;;;;5.90;4.22;;;;;;;-3.51;100.00;96326.78;4989425;28;24533;-74
2023/02/28 05:25:01;;;;;;;5.97;4.70;;;;;;;-3.43;100.00;96322.53;4989555;28;24429;-74
2023/02/28 05:27:28;;;;;;;4.90;4.40;;;;;;;-3.46;100.00;96324.22;4989529;28;24433;-74
2023/02/28 05:29:55;;;;;;;5.55;4.88;;;;;;;-3.34;100.00;96324.22;4986244;28;24543;-74
2023/02/28 05:32:23;;;;;;;10.52;4.47;;;;;;;-3.30;100.00;96327.59;4992796;28;24449;-74
2023/02/28 05:34:49;;;;;;;6.88;5.25;;;;;;;-3.45;100.00;96319.19;4990304;28;24444;-74
2023/02/28 05:37:16;;;;;;;5.90;4.47;;;;;;;-3.44;100.00;96327.63;4989497;28;24437;-74
2023/02/28 05:39:42;;;;;;;5.75;4.85;;;;;;;-3.32;100.00;96324.25;4986386;28;24469;-72
2023/02/28 05:42:09;;;;;;;6.63;5.32;;;;;;;-3.50;100.00;96318.31;4980491;28;24449;-74
2023/02/28 05:44:36;;;;;;;6.35;4.55;;;;;;;-3.51;100.00;96325.94;4991168;28;24437;-73
2023/02/28 05:47:03;;;;;;;6.38;4.72;;;;;;;-3.35;100.00;96326.78;4992033;28;24437;-73
2023/02/28 05:49:30;;;;;;;7.18;5.10;;;;;;;-3.44;100.00;96325.09;4984492;28;24453;-73
2023/02/28 05:51:57;;;;;;;7.00;5.37;;;;;;;-3.09;100.00;96324.25;4987947;28;24455;-73
2023/02/28 05:54:23;;;;;;;8.10;5.05;;;;;;;-3.19;100.00;96326.78;4988550;28;24467;-73
2023/02/28 05:56:50;;;;;;;7.38;5.45;;;;;;;-3.40;100.00;96319.19;4987027;28;24441;-72
2023/02/28 05:59:16;;;;;;;8.20;5.18;;;;;;;-3.33;100.00;96325.09;4984593;28;24439;-73
2023/02/28 06:01:47;;;;;;;7.43;4.85;;;;;;;-3.38;100.00;96330.13;4992304;28;24429;-73
2023/02/28 06:04:17;;;;;;;7.43;5.28;;;;;;;-3.27;100.00;96318.31;4991291;28;24439;-73
2023/02/28 06:06:45;;;;;;;5.75;5.03;;;;;;;-3.47;100.00;96325.09;4990377;28;24483;-74
2023/02/28 06:09:12;;;;;;;5.88;5.28;;;;;;;-3.28;100.00;96326.78;4991941;28;24471;-77
2023/02/28 06:11:38;;;;;;;7.38;5.65;;;;;;;-3.33;100.00;96320.03;4994203;28;24453;-76
2023/02/28 06:14:05;;;;;;;6.80;5.13;;;;;;;-3.32;100.00;96321.72;4987840;28;24441;-76
2023/02/28 06:16:34;;;;;;;7.43;5.55;;;;;;;-3.27;100.00;96325.91;4986599;28;24444;-77
2023/02/28 06:19:03;;;;;;;6.55;5.32;;;;;;;-3.20;100.00;96336.91;4990227;28;24448;-78
2023/02/28 06:21:29;;;;;;;7.50;5.25;;;;;;;-3.39;100.00;96345.34;4989854;28;24444;-78
2023/02/28 06:23:58;;;;;;;6.15;5.28;;;;;;;-3.31;100.00;96336.06;4990556;28;24433;-77
2023/02/28 06:26:25;;;;;;;9.60;5.83;;;;;;;-3.34;100.00;96343.66;4993632;28;24469;-76
2023/02/28 06:28:52;;;;;;;7.63;5.60;;;;;;;-3.07;100.00;96351.28;4995342;28;24440;-78
2023/02/28 06:31:19;;;;;;;8.07;5.97;;;;;;;-2.87;100.00;96351.25;4994170;28;24456;-77
2023/02/28 06:33:46;;;;;;;6.13;5.53;;;;;;;-3.12;100.00;96358.00;4994682;28;24456;-77
2023/02/28 06:36:14;;;;;;;7.95;5.90;;;;;;;-3.12;100.00;96352.94;4994592;28;24433;-76
2023/02/28 06:38:41;;;;;;;6.50;5.78;;;;;;;-3.16;100.00;96351.25;4989603;28;24433;-76
2023/02/28 06:41:10;;;;;;;6.50;5.80;;;;;;;-3.12;100.00;96355.47;4991311;28;24518;-77
2023/02/28 06:43:39;;;;;;;6.63;5.63;;;;;;;-3.26;100.00;96347.06;4988121;28;24440;-76
2023/02/28 06:46:07;;;;;;;8.18;5.97;;;;;;;-3.12;100.00;96350.41;4992918;28;24456;-76
2023/02/28 06:48:35;;;;;;;7.70;5.68;;;;;;;-3.26;100.00;96359.72;4990124;28;24445;-77
2023/02/28 06:51:06;;;;;;;7.72;5.63;;;;;;;-3.35;100.00;96360.53;4989509;28;24463;-77
2023/02/28 06:53:33;;;;;;;8.63;6.20;;;;;;;-2.90;100.00;96363.06;4989501;28;24437;-77
2023/02/28 06:56:00;;;;;;;7.53;5.95;;;;;;;-2.87;100.00;96369.00;4993077;28;24449;-76
2023/02/28 06:58:28;;;;;;;10.38;6.30;;;;;;;-3.19;100.00;96361.38;4989460;28;24453;-77
2023/02/28 07:00:55;;;;;;;7.00;5.95;;;;;;;-3.25;100.00;96369.84;4991416;28;24846;-76
2023/02/28 07:03:21;;;;;;;8.17;6.53;;;;;;;-2.85;100.00;96372.38;4986364;28;24516;-76
2023/02/28 07:05:48;;;;;;;9.82;6.60;;;;;;;-3.12;100.00;96359.69;4983949;28;25019;-77
2023/02/28 07:08:14;;;;;;;10.52;6.68;;;;;;;-2.82;100.00;96374.88;4990396;28;24456;-76
2023/02/28 07:10:42;;;;;;;7.40;5.97;;;;;;;-2.96;100.00;96374.91;4989587;28;24437;-76
2023/02/28 07:13:09;;;;;;;7.32;6.22;;;;;;;-3.01;100.00;96371.53;4991647;28;24820;-76
2023/02/28 07:15:37;;;;;;;7.35;6.18;;;;;;;-3.08;100.00;96376.59;4985545;28;24448;-77
2023/02/28 07:18:04;;;;;;;8.90;6.43;;;;;;;-2.88;100.00;96377.44;4991133;28;24509;-75
2023/02/28 07:20:32;;;;;;;8.80;6.28;;;;;;;-2.70;100.00;96377.44;4984434;28;24993;-77
2023/02/28 07:22:58;;;;;;;7.43;6.07;;;;;;;-2.96;100.00;96386.75;4991243;28;24433;-76
2023/02/28 07:25:26;;;;;;;10.07;6.68;;;;;;;-2.85;100.00;96387.59;4990362;28;24457;-76
2023/02/28 07:27:54;;;;;;;7.30;6.40;;;;;;;-3.04;100.00;96390.94;4987884;28;24448;-75
2023/02/28 07:30:20;;;;;;;6.88;6.18;;;;;;;-2.75;100.00;96388.41;4990233;28;24995;-76
2023/02/28 07:32:48;;;;;;;10.38;6.55;;;;;;;-2.88;100.00;96377.44;4990507;28;24459;-75
2023/02/28 07:35:16;;;;;;;8.70;6.82;;;;;;;-2.71;100.00;96385.03;4986928;28;24804;-75
2023/02/28 07:37:42;;;;;;;7.97;7.18;;;;;;;-3.03;100.00;96374.94;4985066;28;24437;-75
2023/02/28 07:40:12;;;;;;;8.63;6.50;;;;;;;-3.08;100.00;96389.25;4988175;28;24444;-74
2023/02/28 07:42:39;;;;;;;11.00;6.82;;;;;;;-2.93;100.00;96387.59;4990629;28;24437;-76
2023/02/28 07:45:06;;;;;;;11.30;7.07;;;;;;;-2.83;100.00;96380.81;4986415;28;24536;-76
2023/02/28 07:47:33;;;;;;;10.60;7.25;;;;;;;-2.68;100.00;96379.94;4982598;28;24433;-76
2023/02/28 07:50:01;;;;;;;8.07;6.90;;;;;;;-2.68;100.00;96380.78;4988647;28;24448;-76
2023/02/28 07:52:27;;;;;;;9.83;6.87;;;;;;;-2.58;100.00;96381.63;4982947;28;24460;-77
2023/02/28 07:54:54;;;;;;;8.20;7.13;;;;;;;-2.65;100.00;96377.41;4987693;28;24445;-76
2023/02/28 07:57:20;;;;;;;8.40;6.88;;;;;;;-2.59;100.00;96389.25;4989400;28;24448;-75
2023/02/28 07:59:47;;;;;;;9.25;6.20;;;;;;;-2.63;100.00;96390.06;4990204;28;24520;-76
2023/02/28 08:02:15;;;;;;;10.68;7.30;;;;;;;-2.36;100.00;96395.13;4989447;28;24429;-76
2023/02/28 08:04:41;;;;;;;8.18;6.90;;;;;;;-2.61;100.00;96393.47;4979525;28;24443;-76
2023/02/28 08:07:12;;;;;;;8.48;7.10;;;;;;;-2.59;100.00;96389.25;4985689;28;24445;-76
2023/02/28 08:09:39;;;;;;;7.68;6.88;;;;;;;-2.67;100.00;96399.38;4990366;28;24454;-74
2023/02/28 08:12:06;;;;;;;8.50;6.90;;;;;;;-2.52;100.00;96409.53;4989677;28;24461;-75
2023/02/28 08:14:32;;;;;;;12.85;7.57;;;;;;;-2.59;100.00;96404.47;4988002;28;24995;-76
2023/02/28 08:16:59;;;;;;;7.35;6.53;;;;;;;-2.82;100.00;96396.84;4987637;28;24441;-76
2023/02/28 08:19:26;;;;;;;11.90;7.30;;;;;;;-2.67;100.00;96404.44;4986303;28;25288;-76
2023/02/28 08:21:52;;;;;;;9.07;6.97;;;;;;;-2.57;100.00;96397.69;4987074;28;24429;-76
2023/02/28 08:24:20;;;;;;;12.13;6.40;;;;;;;-2.77;100.00;96403.63;4989756;28;24460;-76
2023/02/28 08:26:46;;;;;;;9.95;6.57;;;;;;;-2.59;100.00;96396.84;4989664;28;24440;-75
2023/02/28 08:29:13;;;;;;;17.67;6.75;;;;;;;-2.49;100.00;96398.50;4987061;28;24440;-76
2023/02/28 08:31:39;;;;;;;10.00;6.70;;;;;;;-2.55;100.00;96396.00;4989819;28;24441;-76
2023/02/28 08:34:07;;;;;;;16.45;7.22;;;;;;;-2.53;100.00;96402.75;4986995;28;24437;-75
2023/02/28 08:36:33;;;;;;;8.35;7.38;;;;;;;-2.34;100.00;96406.09;4989590;28;24989;-76
2023/02/28 08:39:00;;;;;;;10.15;7.53;;;;;;;-2.30;100.00;96405.25;4989046;28;24445;-76
2023/02/28 08:41:28;;;;;;;9.52;7.18;;;;;;;-2.29;100.00;96404.41;4977783;28;24516;-75
2023/02/28 08:43:54;;;;;;;8.45;7.30;;;;;;;-2.41;100.00;96414.59;4965571;28;25026;-75
2023/02/28 08:46:21;;;;;;;8.55;6.85;;;;;;;-2.38;100.00;96411.19;4969008;28;24434;-76
2023/02/28 08:48:48;;;;;;;8.93;7.38;;;;;;;-2.27;100.00;96407.75;4970240;28;24461;-76
2023/02/28 08:51:18;;;;;;;9.10;7.25;;;;;;;-2.16;100.00;96425.50;4969554;28;24808;-76
2023/02/28 08:53:45;;;;;;;7.87;7.03;;;;;;;-2.45;100.00;96423.91;4968701;28;24491;-76
2023/02/28 08:56:14;;;;;;;9.77;6.70;;;;;;;-2.59;100.00;96422.22;4969006;28;24444;-76
2023/02/28 08:58:42;;;;;;;8.65;6.78;;;;;;;-2.40;100.00;96417.97;4966975;28;24805;-76
2023/02/28 09:01:10;;;;;;;9.77;6.83;;;;;;;-2.36;100.00;96424.72;4972021;28;24445;-76
2023/02/28 09:03:36;;;;;;;8.13;7.25;;;;;;;-2.31;100.00;96418.78;4973386;28;24440;-76
2023/02/28 09:06:04;;;;;;;8.32;7.40;;;;;;;-2.30;100.00;96423.03;4973487;28;24444;-76
2023/02/28 09:08:31;;;;;;;10.43;8.00;;;;;;;-2.39;100.00;96434.88;4969398;28;24453;-76
2023/02/28 09:10:59;;;;;;;12.32;7.22;;;;;;;-2.63;100.00;96428.97;4973591;28;25003;-76
2023/02/28 09:13:26;;;;;;;9.95;7.03;;;;;;;-2.57;100.00;96433.19;4973524;28;24561;-76
2023/02/28 09:15:54;;;;;;;9.73;7.20;;;;;;;-2.26;100.00;96434.00;4972875;28;24444;-76
2023/02/28 09:18:21;;;;;;;9.55;7.32;;;;;;;-2.33;100.00;96430.63;4972372;28;24477;-76
2023/02/28 09:20:47;;;;;;;10.73;7.15;;;;;;;-2.20;100.00;96431.44;4973462;28;24442;-77
2023/02/28 09:23:14;;;;;;;9.90;7.18;;;;;;;-2.14;100.00;96433.13;4971135;28;24425;-77
2023/02/28 09:25:47;;;;;;;8.52;7.63;;;;;;;-2.14;100.00;96433.13;4972617;28;24434;-76
2023/02/28 09:28:15;;;;;;;10.60;7.75;;;;;;;-2.19;100.00;96430.56;4968112;28;24991;-76
2023/02/28 09:30:41;;;;;;;13.25;8.27;;;;;;;-2.17;100.00;96431.44;4972858;28;25058;-76
2023/02/28 09:33:09;;;;;;;11.77;8.00;;;;;;;-2.07;100.00;96433.09;4972511;28;24450;-74
2023/02/28 09:35:36;;;;;;;10.73;7.32;;;;;;;-2.22;100.00;96425.53;4968739;28;24452;-77
2023/02/28 09:38:04;;;;;;;11.18;8.02;;;;;;;-2.24;100.00;96425.53;4970960;28;24528;-77
2023/02/28 09:40:31;;;;;;;13.45;8.13;;;;;;;-2.02;100.00;96430.53;4964028;28;24444;-76
2023/02/28 09:43:00;;;;;;;11.23;7.67;;;;;;;-2.19;100.00;96428.03;4973504;28;24957;-77
2023/02/28 09:45:33;;;;;;;11.02;7.53;;;;;;;-2.19;100.00;96433.13;4973245;28;24453;-77
2023/02/28 09:48:05;;;;;;;10.15;8.27;;;;;;;-2.12;100.00;96428.88;4973069;28;24869;-77
2023/02/28 09:50:39;;;;;;;10.80;8.27;;;;;;;-2.13;100.00;96432.28;4971570;28;24516;-77
2023/02/28 09:53:14;;;;;;;9.23;7.50;;;;;;;-2.24;100.00;96439.91;4966090;28;24457;-76
2023/02/28 09:55:45;;;;;;;10.82;8.35;;;;;;;-1.83;100.00;96442.31;4971737;28;24995;-76
2023/02/28 09:58:19;;;;;;;13.90;8.88;;;;;;;-1.89;100.00;96446.56;4964574;28;24438;-77
2023/02/28 10:00:53;;;;;;;11.23;8.50;;;;;;;-1.96;100.00;96438.16;4971463;28;24429;-75
2023/02/28 10:03:36;;;;;;;9.05;7.70;;;;;;;-2.01;100.00;96443.22;4973569;28;24477;-78
2023/02/28 10:06:13;;;;;;;10.65;8.38;;;;;;;-1.90;100.00;96442.34;4971627;28;24448;-75
2023/02/28 10:08:45;;;;;;;10.30;8.40;;;;;;;-1.82;100.00;96449.06;4970196;28;25058;-75
2023/02/28 10:11:16;;;;;;;14.15;8.77;;;;;;;-1.87;100.00;96444.88;4970358;28;24484;-74
2023/02/28 10:13:52;;;;;;;19.35;9.13;;;;;;;-1.82;100.00;96454.16;4971561;28;24456;-77
2023/02/28 10:16:25;;;;;;;11.38;8.50;;;;;;;-1.83;100.00;96459.25;4968432;28;24441;-75
2023/02/28 10:18:57;;;;;;;9.70;8.35;;;;;;;-1.85;100.00;96464.34;4971933;28;24449;-75
2023/02/28 10:21:29;;;;;;;12.80;8.20;;;;;;;-1.81;100.00;96463.47;4971476;28;24560;-77
2023/02/28 10:24:03;;;;;;;12.85;8.70;;;;;;;-1.55;100.00;96457.47;4967332;28;24800;-76
2023/02/28 10:26:33;;;;;;;15.43;9.83;;;;;;;-1.43;100.00;96465.00;4971878;28;25022;-77
2023/02/28 10:29:00;;;;;;;12.73;9.77;;;;;;;-1.43;100.00;96464.19;4970442;28;24446;-77
2023/02/28 10:31:26;;;;;;;13.35;9.30;;;;;;;-1.44;100.00;96459.97;4974022;28;24430;-77
2023/02/28 10:33:53;;;;;;;10.15;8.90;;;;;;;-1.49;100.00;96465.88;4969852;28;24469;-77
2023/02/28 10:36:21;;;;;;;10.27;9.00;;;;;;;-1.48;100.00;96477.75;4971674;28;24441;-78
2023/02/28 10:38:50;;;;;;;11.27;9.00;;;;;;;-1.55;100.00;96467.63;4973213;28;24445;-76
2023/02/28 10:41:26;;;;;;;10.63;9.52;;;;;;;-1.39;100.00;96468.38;4973246;28;25073;-76
2023/02/28 10:43:53;;;;;;;13.45;9.98;;;;;;;-1.31;100.00;96469.19;4971144;28;24440;-77
2023/02/28 10:46:25;;;;;;;10.85;9.75;;;;;;;-1.26;100.00;96470.00;4968843;28;24438;-78
2023/02/28 10:49:02;;;;;;;13.10;10.07;;;;;;;-1.20;100.00;96464.03;4967025;28;24559;-78
2023/02/28 10:51:36;;;;;;;13.23;9.63;;;;;;;-1.35;100.00;96470.91;4969302;28;24478;-76
2023/02/28 10:54:05;;;;;;;12.43;9.98;;;;;;;-1.40;99.10;96467.53;4964245;28;24460;-77
2023/02/28 10:56:32;;;;;;;13.60;9.68;;;;;;;-1.40;98.13;96467.53;4964636;28;24461;-78
2023/02/28 10:59:00;;;;;;;13.85;10.07;;;;;;;-1.38;99.96;96470.91;4968543;28;24438;-76
2023/02/28 11:01:38;;;;;;;11.45;9.93;;;;;;;-1.31;100.00;96472.56;4971576;28;25041;-77
2023/02/28 11:04:18;;;;;;;13.27;9.95;;;;;;;-1.06;99.99;96480.91;4964579;28;24536;-77
2023/02/28 11:06:45;;;;;;;12.45;9.50;;;;;;;-0.99;98.75;96471.56;4980626;28;24529;-77
2023/02/28 11:09:24;;;;;;;11.95;10.00;;;;;;;-0.98;98.68;96466.44;4990014;28;24450;-77
2023/02/28 11:11:52;;;;;;;20.83;9.43;;;;;;;-0.88;99.10;96474.88;4989102;28;24469;-77
2023/02/28 11:14:22;;;;;;;11.43;9.20;;;;;;;-0.80;96.50;96478.19;4989964;28;24481;-77
2023/02/28 11:16:50;;;;;;;9.63;8.73;;;;;;;-0.77;95.03;96474.78;4988510;28;24457;-75
2023/02/28 11:19:21;;;;;;;11.20;9.50;;;;;;;-0.89;94.47;96479.94;4990045;28;24455;-76
2023/02/28 11:21:54;;;;;;;10.80;9.20;;;;;;;-0.83;96.58;96469.75;4991272;28;24433;-75
2023/02/28 11:24:25;;;;;;;10.35;8.73;;;;;;;-0.89;95.59;96473.19;4989295;28;24440;-76
2023/02/28 11:26:52;;;;;;;11.85;9.65;;;;;;;-0.92;97.11;96475.75;4991457;28;24788;-77
2023/02/28 11:29:22;;;;;;;12.93;9.88;;;;;;;-0.91;97.12;96468.97;4990434;28;24448;-77
2023/02/28 11:32:17;;;;;;;11.70;9.75;;;;;;;-0.78;94.63;96466.31;4990517;28;24447;-77
2023/02/28 11:34:44;;;;;;;11.95;10.10;;;;;;;-0.73;94.27;96479.84;4987781;28;24998;-76